createdAt,value
2018-07-28T00:01:06.179Z,102750.52
2018-07-28T00:03:34.201Z,102748.39
2018-07-28T00:06:01.880Z,102751.20
2018-07-28T00:08:29.586Z,102751.78
2018-07-28T00:10:57.560Z,102750.62
2018-07-28T00:13:25.172Z,102750.26
2018-07-28T00:15:52.837Z,102753.07
2018-07-28T00:18:20.681Z,102748.13
2018-07-28T00:20:48.260Z,102749.48
2018-07-28T00:23:15.908Z,102747.76
2018-07-28T00:25:49.414Z,102745.15
2018-07-28T00:28:17.338Z,102747.45
2018-07-28T00:30:44.999Z,102742.64
2018-07-28T00:33:12.815Z,102735.98
2018-07-28T00:35:40.471Z,102737.81
2018-07-28T00:38:08.114Z,102742.34
2018-07-28T00:40:35.901Z,102743.70
2018-07-28T00:43:03.832Z,102740.98
2018-07-28T00:45:31.466Z,102739.27
2018-07-28T00:47:59.347Z,102736.66
2018-07-28T00:50:27.200Z,102742.66
2018-07-28T00:52:54.827Z,102742.55
2018-07-28T00:55:22.572Z,102730.86
2018-07-28T00:57:50.393Z,102729.41
2018-07-28T01:00:18.003Z,102714.62
2018-07-28T01:02:45.905Z,102732.97
2018-07-28T01:05:13.692Z,102729.89
2018-07-28T01:07:41.316Z,102731.34
2018-07-28T01:10:09.318Z,102731.08
2018-07-28T01:12:37.243Z,102730.19
2018-07-28T01:15:07.698Z,102722.27
2018-07-28T01:17:35.558Z,102724.10
2018-07-28T01:20:03.665Z,102722.85
2018-07-28T01:22:31.433Z,102721.59
2018-07-28T01:24:59.143Z,102726.17
2018-07-28T01:27:27.023Z,102729.35
2018-07-28T01:29:54.684Z,102721.33
2018-07-28T01:32:22.475Z,102731.76
2018-07-28T01:34:50.171Z,102725.29
2018-07-28T01:37:17.786Z,102719.88
2018-07-28T01:39:45.545Z,102715.44
2018-07-28T01:42:13.646Z,102712.73
2018-07-28T01:44:41.326Z,102708.36
2018-07-28T01:47:09.162Z,102713.52
2018-07-28T01:49:36.867Z,102708.56
2018-07-28T01:52:04.608Z,102708.67
2018-07-28T01:54:32.475Z,102711.95
2018-07-28T01:57:00.268Z,102702.48
2018-07-28T01:59:27.882Z,102700.64
2018-07-28T02:01:55.702Z,102702.48
2018-07-28T02:04:23.614Z,102702.78
2018-07-28T02:06:51.194Z,102692.80
2018-07-28T02:09:18.940Z,102698.20
2018-07-28T02:11:46.910Z,102700.91
2018-07-28T02:14:14.523Z,102706.84
2018-07-28T02:16:42.239Z,102696.11
2018-07-28T02:19:10.066Z,102707.79
2018-07-28T02:21:37.660Z,102700.17
2018-07-28T02:24:05.464Z,102694.83
2018-07-28T02:26:33.289Z,102697.13
2018-07-28T02:29:00.918Z,102695.03
2018-07-28T02:31:28.723Z,102693.78
2018-07-28T02:33:56.609Z,102701.50
2018-07-28T02:36:24.258Z,102696.08
2018-07-28T02:38:52.157Z,102703.36
2018-07-28T02:41:19.910Z,102702.38
2018-07-28T02:43:47.523Z,102700.05
2018-07-28T02:46:15.174Z,102701.39
2018-07-28T02:48:42.960Z,102699.67
2018-07-28T02:51:10.596Z,102701.91
2018-07-28T02:53:42.827Z,102697.95
2018-07-28T02:56:10.577Z,102699.77
2018-07-28T02:58:38.149Z,102701.13
2018-07-28T03:01:06.293Z,102703.46
2018-07-28T03:03:34.127Z,102704.41
2018-07-28T03:06:01.798Z,102700.86
2018-07-28T03:08:29.653Z,102703.94
2018-07-28T03:10:57.356Z,102695.34
2018-07-28T03:13:25.001Z,102695.98
2018-07-28T03:15:52.732Z,102697.23
2018-07-28T03:18:20.504Z,102698.48
2018-07-28T03:20:48.090Z,102698.82
2018-07-28T03:23:15.928Z,102699.09
2018-07-28T03:25:43.785Z,102698.51
2018-07-28T03:28:11.409Z,102697.83
2018-07-28T03:30:39.249Z,102688.35
2018-07-28T03:33:07.071Z,102690.34
2018-07-28T03:35:34.691Z,102691.13
2018-07-28T03:38:02.426Z,102688.67
2018-07-28T03:40:30.360Z,102688.57
2018-07-28T03:42:57.977Z,102682.95
2018-07-28T03:45:25.752Z,102688.16
2018-07-28T03:47:53.495Z,102684.39
2018-07-28T03:50:21.198Z,102686.38
2018-07-28T03:52:49.058Z,102687.53
2018-07-28T03:55:16.786Z,102680.55
2018-07-28T03:57:44.403Z,102686.73
2018-07-28T04:00:12.690Z,102687.03
2018-07-28T04:02:40.559Z,102681.61
2018-07-28T04:05:09.894Z,102689.91
2018-07-28T04:10:36.005Z,102687.64
2018-07-28T04:13:03.625Z,102684.32
2018-07-28T04:15:31.528Z,102675.02
2018-07-28T04:17:59.291Z,102679.24
2018-07-28T04:20:27.341Z,102673.02
2018-07-28T04:22:55.417Z,102679.37
2018-07-28T04:25:23.375Z,102675.23
2018-07-28T04:27:51.383Z,102678.80
2018-07-28T04:30:19.334Z,102677.30
2018-07-28T04:32:47.223Z,102678.36
2018-07-28T04:35:14.801Z,102681.77
2018-07-28T04:37:42.777Z,102675.67
2018-07-28T04:40:11.091Z,102672.92
2018-07-28T04:42:39.292Z,102682.11
2018-07-28T04:45:07.533Z,102673.30
2018-07-28T04:47:35.349Z,102666.14
2018-07-28T04:50:03.054Z,102679.74
2018-07-28T04:52:30.811Z,102686.36
2018-07-28T04:54:58.581Z,102678.37
2018-07-28T04:57:26.487Z,102676.55
2018-07-28T04:59:55.038Z,102673.88
2018-07-28T05:02:24.494Z,102680.45
2018-07-28T05:04:52.547Z,102680.87
2018-07-28T05:07:20.395Z,102691.27
2018-07-28T05:09:48.206Z,102689.56
2018-07-28T05:12:15.852Z,102685.13
2018-07-28T05:14:43.681Z,102692.81
2018-07-28T05:17:11.531Z,102687.94
2018-07-28T05:19:39.134Z,102696.09
2018-07-28T05:22:07.120Z,102696.62
2018-07-28T05:24:35.109Z,102694.42
2018-07-28T05:27:02.654Z,102686.63
2018-07-28T05:29:30.809Z,102681.10
2018-07-28T05:31:58.576Z,102683.09
2018-07-28T05:34:26.103Z,102684.94
2018-07-28T05:36:53.762Z,102686.81
2018-07-28T05:39:21.642Z,102688.17
2018-07-28T05:41:49.291Z,102685.60
2018-07-28T05:44:16.853Z,102687.44
2018-07-28T05:46:44.773Z,102683.02
2018-07-28T05:49:12.386Z,102683.63
2018-07-28T05:51:40.241Z,102682.41
2018-07-28T05:54:07.945Z,102683.13
2018-07-28T05:56:35.603Z,102685.64
2018-07-28T05:59:03.534Z,102683.67
2018-07-28T06:01:31.438Z,102697.03
2018-07-28T06:03:59.064Z,102703.84
2018-07-28T06:06:26.743Z,102693.83
2018-07-28T06:08:54.556Z,102693.19
2018-07-28T06:11:22.208Z,102694.94
2018-07-28T06:13:49.831Z,102701.50
2018-07-28T06:16:17.726Z,102705.46
2018-07-28T06:18:45.546Z,102702.49
2018-07-28T06:21:13.331Z,102712.26
2018-07-28T06:23:41.158Z,102711.16
2018-07-28T06:26:09.012Z,102711.52
2018-07-28T06:28:36.692Z,102710.04
2018-07-28T06:31:04.483Z,102717.59
2018-07-28T06:33:32.034Z,102715.23
2018-07-28T06:35:59.893Z,102718.32
2018-07-28T06:38:27.621Z,102721.44
2018-07-28T06:40:55.167Z,102721.19
2018-07-28T06:43:22.907Z,102715.97
2018-07-28T06:45:50.649Z,102722.41
2018-07-28T06:48:18.195Z,102716.09
2018-07-28T06:50:45.923Z,102712.88
2018-07-28T06:53:13.725Z,102711.48
2018-07-28T06:55:41.368Z,102714.23
2018-07-28T06:58:09.108Z,102714.33
2018-07-28T07:00:36.829Z,102713.72
2018-07-28T07:03:04.361Z,102719.04
2018-07-28T07:05:32.220Z,102722.13
2018-07-28T07:08:00.052Z,102728.84
2018-07-28T07:10:27.589Z,102734.30
2018-07-28T07:12:55.377Z,102732.81
2018-07-28T07:15:23.264Z,102726.23
2018-07-28T07:17:50.779Z,102736.62
2018-07-28T07:20:18.571Z,102729.33
2018-07-28T07:22:46.463Z,102728.42
2018-07-28T07:25:14.030Z,102735.24
2018-07-28T07:27:41.715Z,102733.98
2018-07-28T07:30:09.430Z,102726.16
2018-07-28T07:32:37.021Z,102723.81
2018-07-28T07:35:04.690Z,102725.90
2018-07-28T07:37:32.456Z,102731.34
2018-07-28T07:40:00.016Z,102730.51
2018-07-28T07:42:27.743Z,102730.64
2018-07-28T07:44:55.586Z,102726.03
2018-07-28T07:47:23.250Z,102730.38
2018-07-28T07:49:50.787Z,102731.35
2018-07-28T07:52:18.499Z,102738.88
2018-07-28T07:54:46.115Z,102742.63
2018-07-28T07:57:13.748Z,102736.91
2018-07-28T07:59:41.593Z,102740.34
2018-07-28T08:02:09.214Z,102744.44
2018-07-28T08:04:36.939Z,102738.01
2018-07-28T08:07:04.742Z,102743.69
2018-07-28T08:09:32.361Z,102746.91
2018-07-28T08:12:00.128Z,102746.86
2018-07-28T08:14:27.790Z,102746.51
2018-07-28T08:16:55.370Z,102748.35
2018-07-28T08:20:26.192Z,102746.23
2018-07-28T08:22:53.847Z,102748.92
2018-07-28T08:25:21.501Z,102744.44
2018-07-28T08:27:49.387Z,102745.27
2018-07-28T08:30:16.955Z,102742.14
2018-07-28T08:32:44.608Z,102735.66
2018-07-28T08:35:12.617Z,102732.88
2018-07-28T08:37:40.249Z,102735.46
2018-07-28T08:40:07.970Z,102731.18
2018-07-28T08:42:35.749Z,102735.61
2018-07-28T08:45:03.646Z,102734.22
2018-07-28T08:47:31.254Z,102732.84
2018-07-28T08:49:59.242Z,102737.75
2018-07-28T08:52:26.842Z,102734.61
2018-07-28T08:54:54.397Z,102740.89
2018-07-28T08:57:22.207Z,102737.97
2018-07-28T08:59:49.814Z,102737.27
2018-07-28T09:02:17.411Z,102737.59
2018-07-28T09:04:45.301Z,102729.85
2018-07-28T09:07:12.871Z,102732.88
2018-07-28T09:09:40.556Z,102740.90
2018-07-28T09:12:08.544Z,102737.00
2018-07-28T09:14:36.157Z,102734.94
2018-07-28T09:17:03.776Z,102729.88
2018-07-28T09:19:31.602Z,102733.95
2018-07-28T09:21:59.204Z,102725.88
2018-07-28T09:24:26.829Z,102723.82
2018-07-28T09:26:54.696Z,102716.27
2018-07-28T09:29:22.284Z,102721.51
2018-07-28T09:31:49.961Z,102719.22
2018-07-28T09:34:17.700Z,102722.74
2018-07-28T09:36:45.286Z,102718.29
2018-07-28T09:39:12.923Z,102719.95
2018-07-28T09:41:41.116Z,102702.65
2018-07-28T09:44:08.698Z,102705.58
2018-07-28T09:46:36.592Z,102702.67
2018-07-28T09:49:04.695Z,102695.28
2018-07-28T09:51:32.221Z,102701.69
2018-07-28T09:53:59.771Z,102699.34
2018-07-28T09:56:27.662Z,102701.78
2018-07-28T09:58:55.205Z,102694.78
2018-07-28T10:01:23.578Z,102694.86
2018-07-28T10:03:52.044Z,102691.94
2018-07-28T10:06:19.590Z,102688.83
2018-07-28T10:08:47.159Z,102680.33
2018-07-28T10:11:14.982Z,102684.59
2018-07-28T10:13:42.482Z,102681.83
2018-07-28T10:16:10.136Z,102670.56
2018-07-28T10:18:37.973Z,102676.84
2018-07-28T10:21:05.571Z,102677.41
2018-07-28T10:23:33.362Z,102680.38
2018-07-28T10:26:01.292Z,102680.23
2018-07-28T10:28:28.918Z,102678.25
2018-07-28T10:30:56.489Z,102675.02
2018-07-28T10:33:24.264Z,102675.23
2018-07-28T10:35:51.966Z,102675.08
2018-07-28T10:38:19.798Z,102678.20
2018-07-28T10:40:48.076Z,102677.87
2018-07-28T10:43:15.664Z,102675.47
2018-07-28T10:45:43.422Z,102675.19
2018-07-28T10:48:11.288Z,102679.70
2018-07-28T10:50:38.880Z,102677.50
2018-07-28T10:53:06.420Z,102675.16
2018-07-28T10:55:34.405Z,102677.78
2018-07-28T10:58:01.952Z,102668.89
2018-07-28T11:00:29.628Z,102672.86
2018-07-28T11:02:57.534Z,102666.48
2018-07-28T11:05:25.294Z,102659.60
2018-07-28T11:07:52.995Z,102654.61
2018-07-28T11:10:20.976Z,102664.23
2018-07-28T11:12:48.551Z,102656.68
2018-07-28T11:15:16.186Z,102654.09
2018-07-28T11:17:43.963Z,102641.91
2018-07-28T11:20:11.783Z,102642.78
2018-07-28T11:22:39.385Z,102641.56
2018-07-28T11:25:07.869Z,102639.52
2018-07-28T11:27:36.120Z,102635.43
2018-07-28T11:30:04.343Z,102630.11
2018-07-28T11:32:43.487Z,102632.35
2018-07-28T11:35:22.201Z,102628.03
2018-07-28T11:38:33.987Z,102621.84
2018-07-28T11:41:13.117Z,102621.69
2018-07-28T11:43:52.360Z,102625.45
2018-07-28T11:46:19.948Z,102623.75
2018-07-28T11:48:47.528Z,102619.95
2018-07-28T11:51:15.332Z,102627.55
2018-07-28T11:53:42.902Z,102630.28
2018-07-28T11:56:10.418Z,102618.41
2018-07-28T11:58:38.255Z,102619.25
2018-07-28T12:01:05.858Z,102623.55
2018-07-28T12:03:33.545Z,102624.93
2018-07-28T12:06:01.435Z,102630.75
2018-07-28T12:08:29.032Z,102627.29
2018-07-28T12:10:56.583Z,102626.61
2018-07-28T12:13:24.503Z,102623.50
2018-07-28T12:15:52.087Z,102619.36
2018-07-28T12:18:19.714Z,102624.70
2018-07-28T12:20:47.460Z,102623.47
2018-07-28T12:23:15.121Z,102627.94
2018-07-28T12:25:42.844Z,102619.00
2018-07-28T12:28:10.802Z,102621.28
2018-07-28T12:30:38.454Z,102622.31
2018-07-28T12:33:06.044Z,102615.78
2018-07-28T12:35:33.933Z,102609.92
2018-07-28T12:38:01.580Z,102612.21
2018-07-28T12:40:29.124Z,102611.19
2018-07-28T12:42:56.984Z,102614.27
2018-07-28T12:45:24.570Z,102614.94
2018-07-28T12:47:52.126Z,102601.51
2018-07-28T12:50:20.005Z,102597.69
2018-07-28T12:52:47.622Z,102600.06
2018-07-28T12:55:15.185Z,102597.46
2018-07-28T12:57:43.144Z,102593.84
2018-07-28T13:00:10.712Z,102590.90
2018-07-28T13:02:38.254Z,102586.77
2018-07-28T13:05:06.798Z,102590.39
2018-07-28T13:07:34.409Z,102591.59
2018-07-28T13:10:02.017Z,102576.94
2018-07-28T13:12:30.083Z,102580.89
2018-07-28T13:14:57.644Z,102574.87
2018-07-28T13:17:25.337Z,102575.56
2018-07-28T13:19:53.035Z,102576.97
2018-07-28T13:22:20.797Z,102576.99
2018-07-28T13:24:48.350Z,102571.14
2018-07-28T13:27:16.224Z,102570.13
2018-07-28T13:29:43.801Z,102561.02
2018-07-28T13:32:11.336Z,102555.19
2018-07-28T13:34:39.252Z,102552.48
2018-07-28T13:37:06.873Z,102555.05
2018-07-28T13:39:34.379Z,102551.64
2018-07-28T13:42:02.347Z,102553.88
2018-07-28T13:44:29.984Z,102546.17
2018-07-28T13:46:57.545Z,102539.42
2018-07-28T13:49:25.234Z,102546.13
2018-07-28T13:51:52.829Z,102537.69
2018-07-28T13:54:20.345Z,102536.16
2018-07-28T13:56:48.348Z,102541.64
2018-07-28T13:59:15.943Z,102534.75
2018-07-28T14:01:43.455Z,102536.11
2018-07-28T14:04:11.228Z,102524.25
2018-07-28T14:06:38.827Z,102528.84
2018-07-28T14:09:08.171Z,102529.49
2018-07-28T14:11:36.244Z,102534.13
2018-07-28T14:14:03.831Z,102517.43
2018-07-28T14:16:31.377Z,102520.34
2018-07-28T14:18:59.122Z,102518.44
2018-07-28T14:21:26.729Z,102516.69
2018-07-28T14:23:54.299Z,102514.94
2018-07-28T14:26:22.115Z,102511.62
2018-07-28T14:28:49.695Z,102501.63
2018-07-28T14:31:17.299Z,102498.83
2018-07-28T14:33:45.339Z,102494.00
2018-07-28T14:36:12.885Z,102498.95
2018-07-28T14:38:40.488Z,102499.48
2018-07-28T14:41:08.341Z,102493.83
2018-07-28T14:43:35.914Z,102490.91
2018-07-28T14:46:03.571Z,102484.05
2018-07-28T14:48:31.669Z,102481.09
2018-07-28T14:50:59.227Z,102484.17
2018-07-28T14:53:26.753Z,102475.42
2018-07-28T14:55:54.681Z,102479.17
2018-07-28T14:58:22.215Z,102467.36
2018-07-28T15:00:49.806Z,102473.18
2018-07-28T15:03:17.809Z,102475.22
2018-07-28T15:05:45.378Z,102466.31
2018-07-28T15:08:12.997Z,102470.05
2018-07-28T15:10:40.724Z,102469.89
2018-07-28T15:13:08.261Z,102467.69
2018-07-28T15:15:36.169Z,102468.34
2018-07-28T15:18:04.038Z,102471.76
2018-07-28T15:20:31.568Z,102472.30
2018-07-28T15:22:59.283Z,102469.38
2018-07-28T15:25:26.986Z,102465.06
2018-07-28T15:27:54.561Z,102462.81
2018-07-28T15:30:22.471Z,102463.77
2018-07-28T15:32:50.196Z,102469.58
2018-07-28T15:35:17.861Z,102467.70
2018-07-28T15:37:52.509Z,102466.33
2018-07-28T15:40:20.125Z,102464.25
2018-07-28T15:42:47.716Z,102456.55
2018-07-28T15:45:15.516Z,102456.73
2018-07-28T15:47:43.135Z,102452.33
2018-07-28T15:50:10.709Z,102458.03
2018-07-28T15:52:38.399Z,102448.62
2018-07-28T15:55:06.124Z,102445.89
2018-07-28T15:57:33.699Z,102451.22
2018-07-28T16:00:01.612Z,102450.55
2018-07-28T16:02:29.226Z,102447.98
2018-07-28T16:04:57.040Z,102445.61
2018-07-28T16:07:25.018Z,102448.19
2018-07-28T16:09:52.777Z,102447.98
2018-07-28T16:12:20.326Z,102455.88
2018-07-28T16:14:48.477Z,102452.75
2018-07-28T16:17:16.081Z,102450.47
2018-07-28T16:19:43.642Z,102454.90
2018-07-28T16:22:11.760Z,102454.48
2018-07-28T16:24:39.319Z,102444.64
2018-07-28T16:27:06.858Z,102434.09
2018-07-28T16:29:34.885Z,102440.20
2018-07-28T16:32:02.482Z,102450.23
2018-07-28T16:34:30.878Z,102449.67
2018-07-28T16:36:59.192Z,102441.87
2018-07-28T16:39:26.698Z,102444.72
2018-07-28T16:41:54.314Z,102446.06
2018-07-28T16:44:22.325Z,102447.04
2018-07-28T16:46:49.851Z,102451.13
2018-07-28T16:49:17.448Z,102445.25
2018-07-28T16:51:45.408Z,102442.27
2018-07-28T16:54:13.014Z,102439.09
2018-07-28T16:56:40.569Z,102443.34
2018-07-28T16:59:08.633Z,102444.12
2018-07-28T17:01:36.253Z,102438.36
2018-07-28T17:04:03.799Z,102438.83
2018-07-28T17:06:32.078Z,102433.16
2018-07-28T17:08:59.632Z,102436.37
2018-07-28T17:11:27.232Z,102429.98
2018-07-28T17:13:55.387Z,102429.58
2018-07-28T17:16:22.948Z,102435.29
2018-07-28T17:18:50.490Z,102432.67
2018-07-28T17:21:18.494Z,102431.27
2018-07-28T17:23:46.052Z,102436.83
2018-07-28T17:26:13.690Z,102428.73
2018-07-28T17:28:41.659Z,102429.53
2018-07-28T17:31:09.296Z,102422.16
2018-07-28T17:33:36.852Z,102422.55
2018-07-28T17:36:04.870Z,102418.20
2018-07-28T17:38:32.426Z,102417.64
2018-07-28T17:41:00.158Z,102414.63
2018-07-28T17:43:27.924Z,102415.81
2018-07-28T17:45:55.567Z,102414.70
2018-07-28T17:48:23.106Z,102410.52
2018-07-28T17:50:51.126Z,102414.58
2018-07-28T17:53:18.834Z,102407.32
2018-07-28T17:55:46.388Z,102407.62
2018-07-28T17:58:14.181Z,102408.41
2018-07-28T18:00:41.798Z,102411.45
2018-07-28T18:03:09.394Z,102412.91
2018-07-28T18:05:37.232Z,102418.68
2018-07-28T18:08:04.878Z,102412.29
2018-07-28T18:13:07.002Z,102415.64
2018-07-28T18:15:34.525Z,102413.50
2018-07-28T18:18:02.324Z,102419.64
2018-07-28T18:20:30.248Z,102420.57
2018-07-28T18:22:57.847Z,102424.09
2018-07-28T18:25:25.584Z,102429.79
2018-07-28T18:27:53.348Z,102421.30
2018-07-28T18:30:20.920Z,102424.33
2018-07-28T18:32:48.598Z,102418.95
2018-07-28T18:35:16.271Z,102418.86
2018-07-28T18:38:46.719Z,102423.91
2018-07-28T18:41:14.605Z,102422.02
2018-07-28T18:43:42.194Z,102421.05
2018-07-28T18:46:09.910Z,102425.95
2018-07-28T18:48:37.724Z,102430.83
2018-07-28T18:51:05.239Z,102424.08
2018-07-28T18:53:32.940Z,102424.99
2018-07-28T18:56:00.763Z,102431.23
2018-07-28T18:58:28.418Z,102426.83
2018-07-28T19:00:56.286Z,102421.58
2018-07-28T19:03:23.995Z,102418.54
2018-07-28T19:05:51.663Z,102423.05
2018-07-28T19:08:19.765Z,102416.80
2018-07-28T19:10:47.655Z,102411.75
2018-07-28T19:13:20.907Z,102415.77
2018-07-28T19:15:48.685Z,102412.42
2018-07-28T19:18:21.756Z,102415.91
2018-07-28T19:20:49.706Z,102414.34
2018-07-28T19:23:23.033Z,102410.52
2018-07-28T19:25:50.797Z,102407.86
2018-07-28T19:28:24.221Z,102408.77
2018-07-28T19:30:51.965Z,102411.55
2018-07-28T19:33:19.566Z,102412.19
2018-07-28T19:35:52.777Z,102408.50
2018-07-28T19:38:20.588Z,102406.19
2018-07-28T19:40:48.164Z,102403.34
2018-07-28T19:43:15.921Z,102396.59
2018-07-28T19:45:43.548Z,102404.69
2018-07-28T19:48:11.120Z,102394.06
2018-07-28T19:50:38.870Z,102397.55
2018-07-28T19:53:06.614Z,102397.43
2018-07-28T19:55:34.202Z,102397.00
2018-07-28T19:58:02.022Z,102396.50
2018-07-28T20:00:29.800Z,102398.27
2018-07-28T20:02:57.347Z,102403.49
2018-07-28T20:05:25.444Z,102398.66
2018-07-28T20:07:53.192Z,102399.42
2018-07-28T20:10:20.765Z,102389.18
2018-07-28T20:12:48.603Z,102393.53
2018-07-28T20:15:16.255Z,102387.48
2018-07-28T20:17:44.703Z,102394.91
2018-07-28T20:20:12.832Z,102397.41
2018-07-28T20:22:40.576Z,102399.04
2018-07-28T20:25:08.150Z,102402.03
2018-07-28T20:27:36.005Z,102409.81
2018-07-28T20:30:04.289Z,102411.08
2018-07-28T20:32:31.858Z,102424.70
2018-07-28T20:34:59.639Z,102425.70
2018-07-28T20:37:27.332Z,102418.64
2018-07-28T20:39:54.922Z,102404.23
2018-07-28T20:42:22.646Z,102423.25
2018-07-28T20:44:50.264Z,102422.55
2018-07-28T20:47:17.870Z,102418.59
2018-07-28T20:49:46.004Z,102410.16
2018-07-28T20:52:13.681Z,102417.10
2018-07-28T20:54:41.288Z,102411.56
2018-07-28T20:57:09.219Z,102410.95
2018-07-28T20:59:36.876Z,102413.93
2018-07-28T21:02:04.525Z,102403.30
2018-07-28T21:04:32.191Z,102402.56
2018-07-28T21:07:00.052Z,102406.39
2018-07-28T21:09:27.648Z,102405.64
2018-07-28T21:11:55.418Z,102404.41
2018-07-28T21:14:23.051Z,102414.06
2018-07-28T21:16:50.694Z,102410.63
2018-07-28T21:19:18.342Z,102411.98
2018-07-28T21:21:46.205Z,102409.75
2018-07-28T21:24:13.804Z,102410.89
2018-07-28T21:26:41.511Z,102410.63
2018-07-28T21:29:09.274Z,102407.68
2018-07-28T21:31:36.758Z,102411.14
2018-07-28T21:34:04.539Z,102407.32
2018-07-28T21:36:32.295Z,102409.30
2018-07-28T21:38:59.833Z,102410.78
2018-07-28T21:41:27.622Z,102407.34
2018-07-28T21:43:55.411Z,102407.47
2018-07-28T21:46:23.000Z,102403.66
2018-07-28T21:48:50.827Z,102404.75
2018-07-28T21:51:18.439Z,102405.00
2018-07-28T21:53:46.084Z,102407.36
2018-07-28T21:56:13.806Z,102408.37
2018-07-28T21:58:41.525Z,102404.42
2018-07-28T22:01:18.937Z,102400.07
2018-07-28T22:03:46.804Z,102403.92
2018-07-28T22:06:14.519Z,102401.06
2018-07-28T22:08:42.730Z,102404.79
2018-07-28T22:11:10.385Z,102399.12
2018-07-28T22:13:38.025Z,102402.80
2018-07-28T22:16:05.930Z,102401.22
2018-07-28T22:18:33.737Z,102396.16
2018-07-28T22:21:01.389Z,102400.48
2018-07-28T22:23:29.161Z,102401.09
2018-07-28T22:25:57.014Z,102407.17
2018-07-28T22:28:24.584Z,102406.78
2018-07-28T22:30:52.255Z,102415.59
2018-07-28T22:33:19.915Z,102418.00
2018-07-28T22:35:47.432Z,102419.48
2018-07-28T22:38:15.052Z,102422.33
2018-07-28T22:40:42.783Z,102420.97
2018-07-28T22:43:10.427Z,102421.09
2018-07-28T22:45:38.119Z,102421.22
2018-07-28T22:48:06.102Z,102423.06
2018-07-28T22:50:33.764Z,102416.91
2018-07-28T22:53:01.471Z,102413.80
2018-07-28T22:55:29.188Z,102412.44
2018-07-28T22:57:56.770Z,102406.16
2018-07-28T23:00:24.451Z,102405.89
2018-07-28T23:02:52.211Z,102395.02
2018-07-28T23:05:19.812Z,102401.45
2018-07-28T23:07:47.504Z,102390.22
2018-07-28T23:10:15.404Z,102394.30
2018-07-28T23:12:42.930Z,102394.30
2018-07-28T23:15:10.692Z,102390.83
2018-07-28T23:17:38.507Z,102387.88
2018-07-28T23:20:06.320Z,102389.36
2018-07-28T23:22:34.150Z,102390.20
2018-07-28T23:25:02.013Z,102386.77
2018-07-28T23:27:29.732Z,102379.23
2018-07-28T23:29:57.384Z,102383.42
2018-07-28T23:32:25.145Z,102378.47
2018-07-28T23:34:52.712Z,102384.16
2018-07-28T23:37:20.626Z,102385.64
2018-07-28T23:39:48.526Z,102384.28
2018-07-28T23:42:16.121Z,102384.05
2018-07-28T23:44:43.866Z,102376.38
2018-07-28T23:47:11.555Z,102375.27
2018-07-28T23:49:39.164Z,102367.12
2018-07-28T23:52:07.023Z,102363.30
2018-07-28T23:54:34.813Z,102367.98
2018-07-28T23:57:02.459Z,102361.79
2018-07-28T23:59:30.073Z,102365.02
